Time;durP1;ratioP1;P1;durP2;ratioP2;P2;SDS_P1;SDS_P2;PMS_P1;PMS_P2;Temp;Humidity;BMP_temperature;BMP_pressure;BME280_temperature;BME280_humidity;BME280_pressure;Samples;Min_cycle;Max_cycle;Signal;HPM_P1;HPM_P2
2021/12/04 00:02:20;;;;;;;1.70;1.60;;;;;;;4.10;89.18;94557.19;5046501;27;21300;-69
2021/12/04 00:04:50;;;;;;;1.77;1.67;;;;;;;4.29;88.82;94561.03;5039283;27;20203;-69
2021/12/04 00:07:17;;;;;;;1.80;1.70;;;;;;;4.08;88.90;94564.75;5041605;27;20223;-69
2021/12/04 00:09:46;;;;;;;2.22;2.13;;;;;;;4.24;89.00;94559.44;5043755;27;20203;-67
2021/12/04 00:12:13;;;;;;;1.42;1.33;;;;;;;4.25;88.57;94551.06;5039364;27;20341;-69
2021/12/04 00:14:41;;;;;;;2.20;2.00;;;;;;;4.27;88.80;94555.19;5040664;27;20715;-68
2021/12/04 00:17:08;;;;;;;1.80;1.70;;;;;;;4.26;89.42;94547.69;5044830;27;20203;-67
2021/12/04 00:19:36;;;;;;;1.77;1.67;;;;;;;4.37;88.39;94543.31;5039708;27;20231;-68
2021/12/04 00:22:03;;;;;;;1.60;1.60;;;;;;;4.19;89.44;94551.19;5039743;27;20203;-69
2021/12/04 00:24:30;;;;;;;1.77;1.70;;;;;;;4.34;88.64;94560.97;5043145;27;20263;-68
2021/12/04 00:26:58;;;;;;;1.95;1.85;;;;;;;4.32;88.39;94558.47;5038518;27;20211;-69
2021/12/04 00:29:25;;;;;;;1.70;1.70;;;;;;;4.23;88.62;94552.75;5038723;27;20187;-68
2021/12/04 00:31:57;;;;;;;1.52;1.52;;;;;;;4.36;88.73;94549.19;5039360;27;20329;-69
2021/12/04 00:34:26;;;;;;;1.73;1.63;;;;;;;4.35;88.37;94548.38;5042866;27;20275;-69
2021/12/04 00:50:33;;;;;;;2.20;2.10;;;;;;;4.20;88.23;94548.66;5037949;27;20240;-67
2021/12/04 00:53:02;;;;;;;2.08;1.98;;;;;;;4.17;87.74;94550.38;5038977;27;20279;-68
2021/12/04 00:55:29;;;;;;;2.70;2.60;;;;;;;4.07;88.13;94553.03;5040541;27;20223;-68
2021/12/04 00:57:56;;;;;;;2.72;2.53;;;;;;;4.26;88.16;94560.25;5039450;27;20203;-68
2021/12/04 01:00:22;;;;;;;2.97;2.78;;;;;;;4.28;87.32;94551.00;5039525;27;20737;-68
2021/12/04 01:02:49;;;;;;;2.28;2.17;;;;;;;4.19;87.37;94544.47;5046777;27;20688;-69
2021/12/04 01:05:16;;;;;;;2.60;2.50;;;;;;;3.98;87.58;94542.28;5042522;27;20191;-67
2021/12/04 01:07:43;;;;;;;2.45;2.35;;;;;;;4.02;87.67;94539.72;5041501;27;20320;-68
2021/12/04 01:10:11;;;;;;;3.50;2.40;;;;;;;4.09;88.17;94536.25;5038580;27;20283;-68
2021/12/04 01:12:38;;;;;;;2.40;2.30;;;;;;;4.27;87.92;94524.19;5045809;27;20259;-69
2021/12/04 01:15:06;;;;;;;2.55;2.45;;;;;;;4.30;87.16;94509.06;5039886;27;20251;-67
2021/12/04 01:17:33;;;;;;;2.90;2.70;;;;;;;4.29;87.26;94503.19;5043027;27;20199;-68
2021/12/04 01:20:00;;;;;;;2.92;2.72;;;;;;;4.27;87.31;94499.03;5037821;27;20304;-67
2021/12/04 01:22:27;;;;;;;2.95;2.75;;;;;;;4.05;88.00;94491.88;5045009;27;20199;-67
2021/12/04 01:24:54;;;;;;;3.75;3.15;;;;;;;3.96;88.79;94499.59;5040854;27;20199;-67
2021/12/04 01:27:23;;;;;;;3.50;3.22;;;;;;;3.95;89.13;94495.44;5037400;27;20559;-68
2021/12/04 01:29:49;;;;;;;3.78;3.58;;;;;;;4.05;87.62;94496.09;5038375;27;20202;-68
2021/12/04 01:32:16;;;;;;;3.28;3.08;;;;;;;4.29;87.29;94492.31;5041043;27;20653;-68
2021/12/04 01:34:43;;;;;;;3.45;3.20;;;;;;;4.30;85.92;94486.41;5038097;27;20199;-68
2021/12/04 01:37:10;;;;;;;3.63;3.33;;;;;;;4.14;86.52;94482.53;5036502;27;20677;-68
2021/12/04 01:39:36;;;;;;;3.50;3.30;;;;;;;4.12;86.40;94486.75;5040567;27;20207;-68
2021/12/04 01:42:04;;;;;;;4.13;3.83;;;;;;;3.88;87.87;94480.47;5044920;27;20310;-69
2021/12/04 01:44:32;;;;;;;3.22;3.03;;;;;;;3.90;88.35;94491.34;5043620;27;20221;-67
2021/12/04 01:47:00;;;;;;;3.55;3.35;;;;;;;3.70;88.98;94494.19;5040240;27;20213;-68
2021/12/04 01:49:27;;;;;;;3.90;3.70;;;;;;;3.70;88.82;94496.69;5038362;27;20202;-68
2021/12/04 01:51:54;;;;;;;3.90;3.67;;;;;;;3.79;88.89;94491.50;5040685;27;20357;-68
2021/12/04 01:54:21;;;;;;;4.03;3.72;;;;;;;3.97;88.67;94491.19;5039400;27;20208;-69
2021/12/04 01:56:48;;;;;;;3.58;3.28;;;;;;;3.98;88.18;94497.88;5039216;27;20705;-68
2021/12/04 01:59:15;;;;;;;3.88;3.58;;;;;;;3.87;88.31;94498.94;5045059;27;20211;-69
2021/12/04 02:01:43;;;;;;;3.80;3.50;;;;;;;3.85;87.68;94510.69;5037512;27;20203;-67
2021/12/04 02:04:10;;;;;;;3.92;3.63;;;;;;;4.00;88.06;94508.72;5042322;27;20203;-68
2021/12/04 02:06:38;;;;;;;4.13;3.83;;;;;;;3.95;88.06;94508.00;5037877;27;20327;-67
2021/12/04 02:09:04;;;;;;;5.82;3.88;;;;;;;4.14;86.71;94507.69;5037361;27;21286;-68
2021/12/04 02:11:31;;;;;;;3.95;3.67;;;;;;;4.18;86.33;94514.31;5036652;27;20203;-68
2021/12/04 02:13:58;;;;;;;4.05;3.65;;;;;;;4.13;87.08;94516.06;5038012;27;20745;-69
2021/12/04 02:16:25;;;;;;;4.63;4.28;;;;;;;4.00;87.37;94511.25;5036603;27;20283;-69
2021/12/04 02:18:53;;;;;;;4.47;4.15;;;;;;;3.83;86.81;94513.22;5036552;27;20663;-69
2021/12/04 02:21:21;;;;;;;4.40;4.00;;;;;;;3.79;87.47;94510.78;5037856;27;20267;-68
2021/12/04 02:23:48;;;;;;;4.78;4.38;;;;;;;3.68;88.81;94496.72;5043187;27;20666;-68
2021/12/04 02:26:15;;;;;;;5.15;4.75;;;;;;;3.69;89.25;94495.88;5035830;27;20287;-69
2021/12/04 02:28:43;;;;;;;4.32;4.03;;;;;;;3.77;89.17;94498.25;5036684;27;20191;-68
2021/12/04 02:31:10;;;;;;;4.47;4.18;;;;;;;3.74;88.31;94491.56;5038104;27;20635;-68
2021/12/04 02:33:37;;;;;;;4.45;4.13;;;;;;;3.86;87.55;94498.09;5049325;27;20192;-67
2021/12/04 02:36:06;;;;;;;4.57;4.27;;;;;;;3.81;87.76;94497.34;5038923;27;20235;-67
2021/12/04 02:38:35;;;;;;;5.40;3.80;;;;;;;3.89;87.86;94495.53;5036334;27;20649;-70
2021/12/04 02:41:02;;;;;;;4.73;4.33;;;;;;;3.83;87.96;94493.13;5040081;27;20191;-68
2021/12/04 02:43:33;;;;;;;4.00;3.70;;;;;;;3.85;88.25;94486.38;5039614;27;20199;-68
2021/12/04 02:46:01;;;;;;;3.67;3.42;;;;;;;3.87;88.06;94493.91;5037363;27;20203;-67
2021/12/04 02:48:27;;;;;;;4.28;3.97;;;;;;;4.02;88.88;94489.44;5037072;27;20207;-67
2021/12/04 02:50:54;;;;;;;4.22;3.63;;;;;;;3.93;89.41;94506.38;5036901;27;20250;-68
2021/12/04 02:53:21;;;;;;;3.83;3.63;;;;;;;3.98;88.51;94510.44;5037449;27;21145;-67
2021/12/04 02:55:50;;;;;;;5.15;4.75;;;;;;;3.97;89.63;94496.22;5036471;27;20235;-69
2021/12/04 02:58:17;;;;;;;3.80;3.50;;;;;;;4.12;88.99;94486.75;5034474;27;20245;-69
2021/12/04 03:00:48;;;;;;;3.83;3.53;;;;;;;4.23;88.12;94487.38;5037957;27;20207;-69
2021/12/04 03:03:17;;;;;;;4.45;4.05;;;;;;;4.12;88.62;94479.22;5040339;27;20852;-68
2021/12/04 03:05:45;;;;;;;4.68;4.28;;;;;;;4.16;88.99;94493.41;5040880;27;20216;-70
2021/12/04 03:08:12;;;;;;;4.38;4.07;;;;;;;3.85;90.40;94486.38;5039315;27;21228;-68
2021/12/04 03:10:39;;;;;;;4.30;4.00;;;;;;;3.85;90.59;94488.91;5041268;27;20298;-70
2021/12/04 03:13:09;;;;;;;4.63;4.23;;;;;;;3.85;90.80;94493.94;5036112;27;20231;-68
2021/12/04 03:15:37;;;;;;;5.20;4.72;;;;;;;3.80;90.88;94482.28;5036451;27;20246;-68
2021/12/04 03:18:05;;;;;;;4.93;4.53;;;;;;;3.81;89.63;94486.47;5034854;27;20204;-69
2021/12/04 03:20:32;;;;;;;4.87;4.57;;;;;;;3.76;90.71;94481.50;5036409;27;20294;-68
2021/12/04 03:23:01;;;;;;;5.07;4.57;;;;;;;3.65;89.78;94488.41;5039466;27;20576;-67
2021/12/04 03:25:28;;;;;;;5.25;4.40;;;;;;;3.29;91.45;94493.13;5039591;27;20207;-68
2021/12/04 03:27:55;;;;;;;5.05;4.65;;;;;;;3.38;92.20;94484.63;5040276;27;20198;-68
2021/12/04 03:30:35;;;;;;;4.73;4.33;;;;;;;3.46;91.36;94482.84;5041672;27;20606;-69
2021/12/04 03:41:26;;;;;;;4.80;4.40;;;;;;;3.42;91.22;94492.13;5043037;27;20218;-68
2021/12/04 03:43:53;;;;;;;5.23;4.77;;;;;;;3.39;90.49;94497.19;5038608;27;20235;-69
2021/12/04 03:46:21;;;;;;;5.07;4.70;;;;;;;3.31;90.70;94501.47;5046691;27;20655;-68
2021/12/04 03:48:51;;;;;;;5.03;4.63;;;;;;;3.46;90.40;94502.13;5039207;27;20203;-69
2021/12/04 03:51:19;;;;;;;6.00;5.50;;;;;;;3.33;90.96;94501.44;5040103;27;20234;-68
2021/12/04 03:53:46;;;;;;;5.40;4.95;;;;;;;3.28;90.92;94488.97;5039631;27;20302;-69
2021/12/04 03:56:15;;;;;;;6.18;5.68;;;;;;;3.28;91.94;94499.00;5039070;27;21287;-68
2021/12/04 03:58:41;;;;;;;5.65;5.20;;;;;;;3.13;92.23;94504.25;5038232;27;20195;-69
2021/12/04 04:01:09;;;;;;;5.90;5.35;;;;;;;3.00;92.39;94505.25;5038597;27;20615;-68
2021/12/04 04:03:37;;;;;;;5.43;4.97;;;;;;;2.98;93.24;94514.50;5045038;27;20298;-68
2021/12/04 04:06:04;;;;;;;6.18;5.72;;;;;;;3.24;91.83;94504.91;5044448;27;21257;-69
2021/12/04 04:08:31;;;;;;;6.63;5.85;;;;;;;3.27;91.12;94509.91;5038707;27;20697;-69
2021/12/04 04:10:58;;;;;;;6.65;6.00;;;;;;;3.29;91.76;94508.19;5038767;27;20199;-68
2021/12/04 04:13:25;;;;;;;5.55;5.00;;;;;;;3.24;91.83;94511.63;5039339;27;20678;-66
2021/12/04 04:15:52;;;;;;;6.10;5.47;;;;;;;3.24;92.28;94502.41;5038491;27;20781;-69
2021/12/04 04:18:19;;;;;;;7.85;6.40;;;;;;;3.25;91.57;94508.25;5048194;27;20244;-67
2021/12/04 04:20:47;;;;;;;6.50;5.60;;;;;;;3.21;91.49;94506.66;5044429;27;20231;-67
2021/12/04 04:23:14;;;;;;;6.22;5.72;;;;;;;3.04;91.60;94511.91;5043968;27;20215;-66
2021/12/04 04:25:41;;;;;;;6.60;6.00;;;;;;;3.00;91.96;94508.59;5039298;27;20207;-66
2021/12/04 04:28:07;;;;;;;6.23;5.70;;;;;;;3.27;90.93;94519.13;5040898;27;20243;-69
2021/12/04 04:30:36;;;;;;;6.53;6.03;;;;;;;3.35;89.96;94510.63;5040109;27;21180;-70
2021/12/04 04:33:04;;;;;;;6.07;5.57;;;;;;;3.44;89.39;94522.22;5041730;27;20203;-69
2021/12/04 04:35:33;;;;;;;5.97;5.47;;;;;;;3.35;89.43;94525.69;5040871;27;20206;-68
2021/12/04 04:38:14;;;;;;;6.20;5.70;;;;;;;3.41;89.96;94525.63;5042294;27;20191;-67
2021/12/04 05:11:17;;;;;;;4.95;4.63;;;;;;;3.54;88.27;94546.34;5038281;27;20210;-69
2021/12/04 05:13:45;;;;;;;5.32;4.90;;;;;;;3.45;88.82;94540.66;5041630;27;20227;-70
2021/12/04 05:16:13;;;;;;;5.88;5.38;;;;;;;3.36;88.18;94539.91;5042097;27;20223;-68
2021/12/04 05:18:43;;;;;;;6.10;5.40;;;;;;;3.39;87.63;94542.38;5044423;27;20199;-68
2021/12/04 05:21:12;;;;;;;6.20;5.70;;;;;;;3.47;87.82;94546.44;5037877;27;20219;-69
2021/12/04 05:23:42;;;;;;;5.20;4.78;;;;;;;3.53;87.61;94543.84;5038203;27;20203;-69
2021/12/04 05:26:11;;;;;;;5.65;5.20;;;;;;;3.74;87.26;94543.53;5037250;27;20211;-69
2021/12/04 05:28:39;;;;;;;5.85;5.35;;;;;;;3.53;86.83;94548.88;5037576;27;20876;-69
2021/12/04 05:31:06;;;;;;;5.95;5.50;;;;;;;3.38;88.51;94552.44;5037819;27;20814;-67
2021/12/04 05:33:34;;;;;;;6.00;5.50;;;;;;;3.47;88.63;94542.25;5037926;27;20207;-69
2021/12/04 05:36:01;;;;;;;5.70;5.13;;;;;;;3.41;88.42;94544.88;5037559;27;20271;-70
2021/12/04 05:38:28;;;;;;;5.22;4.82;;;;;;;3.55;88.05;94535.44;5038803;27;20283;-69
2021/12/04 05:40:55;;;;;;;5.07;4.68;;;;;;;3.40;88.52;94541.53;5038098;27;20294;-70
2021/12/04 05:43:23;;;;;;;6.07;5.57;;;;;;;3.42;88.33;94541.50;5036866;27;20231;-69
2021/12/04 05:45:58;;;;;;;6.60;6.00;;;;;;;3.37;88.47;94549.09;5040500;27;20203;-69
2021/12/04 05:48:31;;;;;;;6.40;5.80;;;;;;;3.39;89.23;94547.41;5037177;27;20238;-67
2021/12/04 05:51:25;;;;;;;6.13;5.47;;;;;;;3.41;88.45;94544.88;5038322;27;20210;-68
2021/12/04 05:56:36;;;;;;;10.43;8.80;;;;;;;3.52;87.95;94547.22;5037972;27;20278;-68
2021/12/04 05:59:03;;;;;;;11.68;9.60;;;;;;;3.54;87.81;94548.03;5036690;27;20290;-69
2021/12/04 06:01:32;;;;;;;11.37;8.47;;;;;;;3.37;88.64;94550.78;5037969;27;20195;-69
2021/12/04 06:03:59;;;;;;;8.17;7.47;;;;;;;3.34;88.08;94549.16;5038100;27;20266;-68
2021/12/04 06:06:26;;;;;;;12.15;7.32;;;;;;;3.48;87.83;94550.63;5037604;27;20255;-71
2021/12/04 06:08:53;;;;;;;9.65;7.03;;;;;;;3.57;87.46;94551.31;5036329;27;20276;-68
2021/12/04 06:11:20;;;;;;;7.53;6.83;;;;;;;3.65;85.97;94553.72;5035979;27;20232;-68
2021/12/04 06:13:47;;;;;;;7.05;6.45;;;;;;;3.52;87.04;94557.25;5041738;27;20349;-68
2021/12/04 06:16:16;;;;;;;11.68;7.75;;;;;;;3.61;87.07;94562.16;5036702;27;20291;-69
2021/12/04 06:18:46;;;;;;;8.25;7.43;;;;;;;3.45;88.01;94555.72;5036700;27;20263;-70
2021/12/04 06:23:58;;;;;;;19.47;12.60;;;;;;;3.41;87.39;94550.72;5035951;27;20263;-70
2021/12/04 06:26:25;;;;;;;9.40;8.10;;;;;;;3.31;88.18;94560.91;5036879;27;20191;-69
2021/12/04 06:28:52;;;;;;;9.63;7.77;;;;;;;3.50;88.06;94558.97;5035706;27;20661;-68
2021/12/04 06:31:19;;;;;;;12.55;8.82;;;;;;;3.60;87.04;94556.31;5036060;27;20631;-69
2021/12/04 06:33:47;;;;;;;10.90;7.93;;;;;;;3.59;87.32;94563.88;5037321;27;20588;-70
2021/12/04 06:36:14;;;;;;;9.75;7.30;;;;;;;3.68;86.17;94568.75;5037166;27;20665;-69
2021/12/04 06:38:41;;;;;;;8.30;7.40;;;;;;;3.66;86.14;94566.28;5035449;27;21523;-69
2021/12/04 06:41:08;;;;;;;7.73;6.93;;;;;;;3.72;86.34;94570.34;5038905;27;20203;-68
2021/12/04 06:43:37;;;;;;;8.17;6.93;;;;;;;3.77;86.12;94581.16;5036441;27;20261;-72
2021/12/04 06:46:06;;;;;;;10.23;8.10;;;;;;;3.72;86.89;94572.88;5037130;27;20202;-69
2021/12/04 06:48:41;;;;;;;10.83;8.67;;;;;;;3.78;85.58;94582.84;5039026;27;20637;-69
2021/12/04 06:51:23;;;;;;;11.20;7.70;;;;;;;3.81;84.80;94579.44;5036305;27;20195;-68
2021/12/04 06:53:56;;;;;;;10.60;8.33;;;;;;;3.58;86.42;94587.31;5038437;27;20673;-67
2021/12/04 06:56:24;;;;;;;13.60;8.18;;;;;;;3.77;86.36;94586.19;5040290;27;20326;-69
2021/12/04 06:58:52;;;;;;;22.17;12.60;;;;;;;3.85;85.80;94591.94;5040525;27;20199;-70
2021/12/04 07:01:19;;;;;;;12.70;8.97;;;;;;;3.93;85.93;94584.28;5051792;27;20199;-67
2021/12/04 07:03:46;;;;;;;9.52;8.18;;;;;;;3.83;85.55;94593.66;5042453;27;20217;-68
2021/12/04 07:06:14;;;;;;;14.67;9.33;;;;;;;3.81;85.70;94592.84;5043630;27;20291;-68
2021/12/04 07:08:41;;;;;;;10.55;8.57;;;;;;;3.88;86.54;94594.41;5040115;27;20274;-68
2021/12/04 07:11:09;;;;;;;10.52;9.00;;;;;;;4.19;86.01;94591.41;5041816;27;20191;-68
2021/12/04 07:13:36;;;;;;;11.13;9.03;;;;;;;4.33;84.14;94594.53;5039877;27;20303;-69
2021/12/04 07:16:04;;;;;;;11.93;8.55;;;;;;;4.11;84.93;94594.06;5041781;27;20267;-68
2021/12/04 07:18:32;;;;;;;10.60;8.93;;;;;;;4.10;85.27;94598.25;5044415;27;20227;-69
2021/12/04 07:20:58;;;;;;;9.75;8.27;;;;;;;4.08;84.97;94602.47;5038280;27;20200;-68
2021/12/04 07:23:27;;;;;;;10.63;8.20;;;;;;;4.03;84.56;94596.69;5041346;27;20199;-68
2021/12/04 07:25:54;;;;;;;10.05;8.43;;;;;;;4.41;85.89;94597.75;5038492;27;20259;-68
2021/12/04 07:28:21;;;;;;;10.68;8.85;;;;;;;4.37;84.07;94598.66;5041413;27;20207;-68
2021/12/04 07:30:47;;;;;;;32.23;16.73;;;;;;;4.48;83.61;94598.44;5039638;27;20207;-68
2021/12/04 07:33:14;;;;;;;18.00;11.52;;;;;;;4.63;83.66;94588.13;5039869;27;20737;-68
2021/12/04 07:35:41;;;;;;;11.13;8.43;;;;;;;4.77;82.03;94586.16;5039245;27;20669;-68
2021/12/04 07:38:10;;;;;;;12.30;8.60;;;;;;;4.85;80.46;94588.56;5038939;27;20230;-68
2021/12/04 07:40:38;;;;;;;9.33;8.13;;;;;;;4.87;81.72;94576.75;5041117;27;20195;-68
2021/12/04 07:43:06;;;;;;;15.73;9.13;;;;;;;4.90;81.49;94571.66;5039224;27;20248;-68
2021/12/04 07:45:33;;;;;;;13.82;10.00;;;;;;;5.13;79.61;94567.00;5039824;27;20191;-68
2021/12/04 07:48:00;;;;;;;12.33;9.97;;;;;;;5.36;79.20;94559.78;5038709;27;20207;-68
2021/12/04 07:50:27;;;;;;;10.63;8.73;;;;;;;5.66;79.69;94555.75;5043726;27;20203;-67
2021/12/04 07:52:54;;;;;;;9.90;8.80;;;;;;;5.88;77.88;94546.00;5043454;27;20218;-68
2021/12/04 07:55:21;;;;;;;9.52;8.23;;;;;;;6.34;75.95;94535.63;5040387;27;20256;-68
2021/12/04 07:57:49;;;;;;;10.50;8.55;;;;;;;6.70;75.50;94538.88;5039265;27;20215;-70
2021/12/04 08:00:19;;;;;;;13.73;9.17;;;;;;;6.82;74.23;94538.56;5039342;27;20203;-68
2021/12/04 08:02:47;;;;;;;11.00;8.73;;;;;;;7.16;73.87;94537.63;5050000;27;20211;-68
2021/12/04 08:05:15;;;;;;;9.48;8.60;;;;;;;7.49;71.79;94530.72;5038850;27;20207;-68
2021/12/04 08:07:43;;;;;;;10.85;8.98;;;;;;;7.68;70.00;94523.41;5044390;27;20662;-69
2021/12/04 08:10:12;;;;;;;8.95;8.00;;;;;;;7.58;69.19;94520.34;5043499;27;21098;-68
2021/12/04 08:12:39;;;;;;;10.75;7.90;;;;;;;7.56;68.87;94513.69;5038865;27;21181;-69
2021/12/04 08:15:11;;;;;;;10.35;8.13;;;;;;;7.50;70.66;94515.50;5040767;27;20252;-69
2021/12/04 08:17:39;;;;;;;9.02;7.55;;;;;;;7.72;70.14;94523.25;5040935;27;20304;-68
2021/12/04 08:20:06;;;;;;;8.35;7.53;;;;;;;8.32;68.05;94528.94;5044047;27;21103;-69
2021/12/04 08:22:34;;;;;;;8.77;7.88;;;;;;;8.24;67.64;94530.88;5041150;27;20195;-68
2021/12/04 08:25:01;;;;;;;10.98;7.88;;;;;;;8.14;66.86;94536.28;5053593;27;20322;-70
2021/12/04 08:27:28;;;;;;;11.65;9.50;;;;;;;7.67;67.84;94531.88;5041932;27;20208;-69
2021/12/04 08:29:55;;;;;;;10.02;7.72;;;;;;;7.18;70.26;94530.00;5041020;27;20207;-68
2021/12/04 08:32:24;;;;;;;8.48;7.57;;;;;;;7.00;70.75;94526.28;5041385;27;20191;-68
2021/12/04 08:34:51;;;;;;;9.38;7.38;;;;;;;6.80;72.29;94530.19;5042450;27;20239;-67
2021/12/04 08:37:18;;;;;;;8.13;7.10;;;;;;;6.68;72.56;94529.72;5043539;27;20563;-68
2021/12/04 08:39:47;;;;;;;8.45;7.63;;;;;;;6.49;74.17;94531.88;5039133;27;20203;-68
2021/12/04 08:42:13;;;;;;;8.15;6.97;;;;;;;6.26;75.04;94541.75;5037220;27;20637;-68
2021/12/04 08:44:41;;;;;;;8.52;7.68;;;;;;;6.28;75.31;94524.88;5040373;27;20195;-67
2021/12/04 08:47:08;;;;;;;9.15;6.40;;;;;;;6.52;75.02;94521.69;5040404;27;20752;-67
2021/12/04 08:49:36;;;;;;;8.98;7.47;;;;;;;6.49;75.40;94519.25;5040282;27;20210;-68
2021/12/04 08:52:04;;;;;;;9.95;6.43;;;;;;;6.47;75.97;94521.00;5040485;27;21268;-68
2021/12/04 08:54:32;;;;;;;9.35;7.60;;;;;;;6.59;75.41;94508.06;5040226;27;21626;-68
2021/12/04 08:56:59;;;;;;;7.55;6.85;;;;;;;6.55;74.78;94509.00;5043102;27;20628;-70
2021/12/04 08:59:27;;;;;;;7.60;6.93;;;;;;;6.65;73.76;94510.41;5041039;27;20203;-69
2021/12/04 09:01:54;;;;;;;6.30;5.80;;;;;;;6.50;73.64;94513.34;5039964;27;20217;-69
2021/12/04 09:04:25;;;;;;;7.53;6.82;;;;;;;6.57;73.75;94511.50;5037065;27;20263;-69
2021/12/04 09:06:54;;;;;;;7.40;6.70;;;;;;;6.37;75.41;94510.31;5042287;27;20271;-69
2021/12/04 09:09:23;;;;;;;21.25;13.10;;;;;;;6.19;77.22;94518.34;5045907;27;20283;-69
2021/12/04 09:11:55;;;;;;;45.13;22.67;;;;;;;6.25;76.96;94518.19;5037267;27;20215;-69
2021/12/04 09:14:25;;;;;;;21.67;14.23;;;;;;;6.19;77.23;94520.06;5038732;27;20303;-70
2021/12/04 09:16:56;;;;;;;11.68;9.80;;;;;;;6.19;78.14;94515.03;5038382;27;20251;-70
2021/12/04 09:19:23;;;;;;;9.38;7.95;;;;;;;6.24;77.66;94513.19;5037061;27;20198;-68
2021/12/04 09:21:50;;;;;;;10.48;7.63;;;;;;;6.35;77.45;94511.22;5037823;27;20194;-69
2021/12/04 09:24:25;;;;;;;10.57;8.98;;;;;;;6.32;76.97;94522.22;5042118;27;20203;-69
2021/12/04 09:26:57;;;;;;;12.65;8.55;;;;;;;6.28;76.96;94515.59;5041995;27;20207;-70
2021/12/04 09:59:11;;;;;;;12.85;9.20;;;;;;;6.05;78.41;94528.78;5040666;27;20218;-69
2021/12/04 10:00:21;;;;;;;12.88;8.55;;;;;;;5.70;79.15;94526.25;5037673;27;20218;-68
2021/12/04 10:11:31;;;;;;;17.92;9.52;;;;;;;5.60;81.06;94509.69;5036849;27;20700;-70
2021/12/04 10:14:19;;;;;;;19.52;11.07;;;;;;;5.61;80.98;94506.31;5040275;27;20242;-69
2021/12/04 10:19:39;;;;;;;11.27;7.95;;;;;;;5.75;79.69;94501.75;5035977;27;20241;-69
2021/12/04 10:22:17;;;;;;;9.80;7.90;;;;;;;5.79;80.64;94493.25;5043778;27;20202;-69
2021/12/04 10:25:00;;;;;;;8.40;7.22;;;;;;;6.09;78.44;94490.03;5040667;27;20211;-69
2021/12/04 10:33:11;;;;;;;14.25;8.18;;;;;;;6.34;76.76;94476.78;5051820;27;20213;-68
2021/12/04 10:35:39;;;;;;;9.85;7.20;;;;;;;6.33;76.28;94470.06;5041580;27;20206;-68
2021/12/04 10:38:12;;;;;;;8.75;7.30;;;;;;;6.30;77.15;94477.72;5045233;27;20314;-70
2021/12/04 10:40:42;;;;;;;11.88;9.18;;;;;;;6.09;77.87;94474.06;5047952;27;20211;-69
2021/12/04 10:43:14;;;;;;;12.95;9.73;;;;;;;6.20;78.28;94479.63;5043139;27;20287;-69
2021/12/04 10:45:47;;;;;;;19.98;12.30;;;;;;;6.05;78.16;94482.56;5044634;27;20187;-67
2021/12/04 10:48:19;;;;;;;14.23;10.07;;;;;;;6.14;78.58;94468.03;5040890;27;20661;-68
2021/12/04 10:50:53;;;;;;;13.60;8.48;;;;;;;6.09;78.48;94464.78;5040704;27;20198;-68
2021/12/04 10:53:23;;;;;;;19.20;8.80;;;;;;;5.96;78.83;94476.06;5044128;27;20226;-69
2021/12/04 10:55:55;;;;;;;14.23;8.13;;;;;;;6.00;79.39;94471.75;5041224;27;20211;-68
2021/12/04 11:01:38;;;;;;;13.77;8.75;;;;;;;6.09;79.82;94474.88;5041586;27;20671;-68
2021/12/04 11:04:17;;;;;;;11.95;7.05;;;;;;;6.10;79.80;94481.59;5042743;27;20759;-70
2021/12/04 11:24:03;;;;;;;6.13;5.28;;;;;;;6.56;77.93;94477.84;5025756;27;20267;-71
2021/12/04 11:35:32;;;;;;;22.10;9.07;;;;;;;6.45;78.35;94478.13;5039837;27;20219;-70
2021/12/04 11:38:14;;;;;;;5.38;4.65;;;;;;;6.54;78.45;94472.00;5046993;27;20233;-70
2021/12/04 11:43:52;;;;;;;8.90;6.70;;;;;;;6.68;78.21;94469.91;5046606;27;20238;-68
2021/12/04 11:46:22;;;;;;;8.57;6.43;;;;;;;6.70;78.19;94460.59;5042787;27;20195;-69
2021/12/04 11:48:49;;;;;;;7.07;6.38;;;;;;;6.63;78.33;94459.13;5039452;27;20191;-69
2021/12/04 11:51:21;;;;;;;10.18;6.97;;;;;;;6.63;77.86;94463.38;5039181;27;20260;-69
2021/12/04 11:53:49;;;;;;;7.82;7.07;;;;;;;6.67;78.95;94453.13;5039298;27;20203;-69
2021/12/04 11:56:18;;;;;;;8.02;6.78;;;;;;;6.57;79.90;94459.31;5044814;27;21158;-70
2021/12/04 11:58:47;;;;;;;7.50;5.85;;;;;;;6.50;79.84;94450.25;5039171;27;20764;-71
2021/12/04 12:01:24;;;;;;;6.22;5.72;;;;;;;6.52;79.70;94451.03;5046225;27;20291;-70
2021/12/04 12:03:54;;;;;;;8.13;5.88;;;;;;;6.42;79.31;94447.13;5047496;27;20230;-70
2021/12/04 12:06:31;;;;;;;8.70;5.30;;;;;;;6.42;79.92;94447.13;5043672;27;21134;-70
2021/12/04 12:09:07;;;;;;;9.07;6.78;;;;;;;6.38;79.74;94450.59;5038901;27;20255;-68
2021/12/04 12:11:34;;;;;;;6.72;6.10;;;;;;;6.57;79.21;94451.72;5048142;27;20202;-69
2021/12/04 12:14:05;;;;;;;7.72;6.75;;;;;;;6.45;79.49;94459.63;5046165;27;20259;-69
2021/12/04 12:16:37;;;;;;;6.80;6.07;;;;;;;6.49;79.34;94448.59;5044616;27;20701;-68
2021/12/04 12:19:09;;;;;;;13.00;6.50;;;;;;;6.58;78.92;94450.88;5048427;27;20231;-69
2021/12/04 12:21:50;;;;;;;7.57;6.35;;;;;;;6.59;79.21;94455.03;5038596;27;20236;-69
2021/12/04 12:27:35;;;;;;;7.95;5.60;;;;;;;6.76;79.35;94462.13;5046949;27;20243;-67
2021/12/04 12:33:04;;;;;;;5.63;5.03;;;;;;;6.58;79.41;94460.97;5042823;27;20243;-69
2021/12/04 12:38:32;;;;;;;6.53;5.25;;;;;;;6.52;78.76;94462.81;5042768;27;20234;-69
2021/12/04 12:41:02;;;;;;;5.78;5.38;;;;;;;6.42;79.55;94458.03;5045445;27;20298;-69
2021/12/04 12:43:38;;;;;;;6.95;5.93;;;;;;;6.44;80.20;94465.53;5040132;27;20799;-69
2021/12/04 12:46:05;;;;;;;8.05;6.13;;;;;;;6.41;79.99;94455.56;5047388;27;20207;-69
2021/12/04 12:48:43;;;;;;;8.82;7.22;;;;;;;6.46;80.63;94458.75;5040019;27;20188;-69
2021/12/04 12:51:11;;;;;;;9.80;7.30;;;;;;;6.34;80.70;94454.06;5046883;27;20303;-69
2021/12/04 12:53:45;;;;;;;8.43;7.43;;;;;;;6.54;81.18;94458.56;5048832;27;20199;-69
2021/12/04 12:56:14;;;;;;;9.68;6.20;;;;;;;6.61;80.04;94457.53;5038745;27;20210;-67
2021/12/04 12:58:44;;;;;;;8.63;7.55;;;;;;;6.72;79.33;94461.38;5039204;27;20232;-69
2021/12/04 13:12:46;;;;;;;9.93;8.18;;;;;;;6.51;80.44;94472.09;5040254;27;20349;-69
2021/12/04 13:15:13;;;;;;;8.38;7.38;;;;;;;6.67;80.04;94473.34;5036082;27;20211;-69
2021/12/04 13:17:41;;;;;;;10.20;8.05;;;;;;;6.75;79.14;94476.47;5042996;27;20208;-70
2021/12/04 13:20:09;;;;;;;8.32;6.93;;;;;;;6.75;79.16;94471.41;5038829;27;20364;-72
2021/12/04 13:22:36;;;;;;;9.07;7.47;;;;;;;6.72;79.54;94471.47;5044992;27;20198;-69
2021/12/04 13:25:10;;;;;;;11.23;8.52;;;;;;;6.81;78.58;94471.25;5037459;27;20211;-70
2021/12/04 13:30:08;;;;;;;9.50;8.45;;;;;;;6.87;79.17;94477.00;5038838;27;20234;-70
2021/12/04 13:32:38;;;;;;;9.45;8.40;;;;;;;6.91;79.95;94476.03;5037790;27;20721;-71
2021/12/04 13:35:09;;;;;;;10.88;7.88;;;;;;;6.90;79.74;94469.34;5041069;27;20219;-70
2021/12/04 13:37:37;;;;;;;25.40;15.65;;;;;;;6.79;80.49;94446.91;5036398;27;20199;-70
2021/12/04 13:40:08;;;;;;;22.55;13.65;;;;;;;6.83;80.14;94471.19;5043084;27;20610;-70
2021/12/04 13:42:37;;;;;;;16.85;12.93;;;;;;;6.82;80.48;94472.06;5037781;27;20292;-70
2021/12/04 13:45:07;;;;;;;16.73;11.77;;;;;;;6.82;80.48;94472.91;5038305;27;20199;-70
2021/12/04 13:47:34;;;;;;;18.33;11.40;;;;;;;6.92;79.58;94473.47;5039437;27;20215;-70
2021/12/04 13:50:01;;;;;;;17.65;11.68;;;;;;;6.84;78.88;94462.75;5037834;27;20287;-70
2021/12/04 13:52:32;;;;;;;71.97;38.45;;;;;;;6.75;79.76;94466.34;5035424;27;20259;-71
2021/12/04 13:55:05;;;;;;;23.77;15.05;;;;;;;6.83;80.15;94468.66;5038205;27;20245;-72
2021/12/04 13:57:33;;;;;;;15.68;9.85;;;;;;;6.83;79.55;94469.50;5038907;27;20294;-71
2021/12/04 14:00:02;;;;;;;15.52;10.38;;;;;;;6.89;79.89;94453.34;5036320;27;20735;-70
2021/12/04 14:02:31;;;;;;;14.57;10.30;;;;;;;7.04;79.83;94457.94;5035377;27;21044;-71
2021/12/04 14:05:00;;;;;;;19.02;10.52;;;;;;;7.02;79.74;94459.69;5035980;27;20210;-70
2021/12/04 14:07:28;;;;;;;14.00;9.70;;;;;;;7.02;78.84;94453.81;5040705;27;20207;-72
2021/12/04 14:09:55;;;;;;;18.58;9.85;;;;;;;7.08;78.91;94444.34;5041744;27;20199;-70
2021/12/04 14:12:22;;;;;;;13.18;10.30;;;;;;;7.02;78.64;94441.16;5037414;27;20203;-70
2021/12/04 14:14:52;;;;;;;11.05;8.85;;;;;;;6.85;78.95;94440.84;5045406;27;20210;-69
2021/12/04 14:17:19;;;;;;;13.00;10.05;;;;;;;6.70;80.61;94437.03;5035691;27;20207;-69
2021/12/04 14:19:46;;;;;;;14.15;10.15;;;;;;;6.42;81.65;94437.03;5043146;27;20686;-69
2021/12/04 14:22:15;;;;;;;14.40;10.60;;;;;;;6.71;81.23;94434.47;5035160;27;20218;-68
2021/12/04 14:24:48;;;;;;;13.02;8.80;;;;;;;6.74;80.22;94434.41;5038072;27;20215;-71
2021/12/04 14:27:21;;;;;;;17.90;11.63;;;;;;;6.74;79.98;94436.91;5036559;27;20200;-68